Warning: Javascript must be enabled to use all the features on this page!


Page Loading - Please Wait...

* We've detected you're using a mobile device. Find our Next Generation Station Page here.
Click to hideNews Bulletins

Peak Streamflow for Arizona

Click to hide state-specific text

Welcome to the NWIS-Web for the Arizona Water Science Center


The majority of USGS Gaging Stations are funded though a cooperative program between the USGS other interested agencies.
Follow this link for information on the Cooperative Water Program with the USGS.


Arizona Water Science Center Home Page
Colorado Basin River Forecast Center (CBRFC) - provided by the National Weather Service, AHPS. CBRFC on an interactive map.
Threatened and Endangered USGS Gaging Stations in Arizona

USGS 09513780 NEW RIVER NEAR ROCK SPRINGS, AZ.

Maricopa County, Arizona
Hydrologic Unit Code 15070102
Latitude  33°58'27", Longitude 112°05'54" NAD27
Drainage area 68.30  square miles
Gage datum 2,310 feet above NGVD29
Output formats
Table
Graph
Tab-separated file
peakfq (watstore) format
Reselect output format
Water
Year
Date Gage
Height
(feet)
Stream-
flow
(cfs)
1962 1962-09-28 3.103 1,050
1963 1963-08-16 2.603 765
1964 1964-08-02 6.303 4,900
1965 1965-04-04 3.733 1,510
1966 1965-12-22 5.803 4,020
1967 1967-09-06 1.403 245
1968 1967-12-19 10.706 10,600
1969 1969-09-05 4.75 1,530
1970 1970-09-05 13.50 18,600
1971 1971-08-03 8.30 6,320
1972 1972-08-12 2.34 231
1973 1972-12-28 4.77 1,550
1974 1974-08-05 1.62 68.0
1975 1974-11-01 4.36 1,570
1976 1976-02-09 5.50 3,230
1977 1977-08-16 0.90 4.00
1978 1978-03-02 9.40 13,600
1979 1979-03-28 7.09 6,530
1980 1980-02-19 8.13 9,350
1981 1981-03-06 2.15 35.0
1982 1982-03-15 5.23 1,760
1983 1982-11-30 8.64 12,500
1984 1983-12-27 4.16 692
1985 1984-12-27 5.61 2,310
1986 1985-11-26 6.33 3,700
1987 1987-03-03 3.87 545
1988 1987-11-01 6.84 4,980
1989 1989-01-05 3.69 428
1990 1990-07-07 5.16 1,670
1991 1991-03-01 8.13 9,810
1992 1992-02-13 7.02 5,510
1993 1993-01-08 10.80 12,600
1994 1993-11-15 3.83 604
1995 1995-02-15 9.81 9,710
1996 1996-07-16 2.18 77.0
1997 1997-01-14 3.64 510
1998 1998-03-28 7.89 5,320
1999 1999-07-15 3.68 529
2000 2000-08-17 2.49 104
2001 2000-10-24 5.57 1,710
2002 2002-09-07 1.95 56.0
2003 2003-02-26 3.85 771
2004 2004-03-05 3.20 424
2005 2005-07-31 11.00 15,000
2006 2006-09-07 5.08 1,790
2007 2007-07-28 4.04 888
2008 2008-01-27 8.515 7,6202
2009 2008-12-26 6.22 3,200
2010 2010-01-21 11.465 20,7002
2011 2010-12-30 3.275 4442
2012 2012-08-21 2.43 138
2013 2013-01-28 3.84 755
2014 2014-08-19 19.60 52,7002
2015 2015-01-31 1.70 57.0
?
  Peak Gage-Height Qualification Codes.
?
  Peak Streamflow Qualification Codes.